Time;durP1;ratioP1;P1;durP2;ratioP2;P2;SDS_P1;SDS_P2;PMS_P1;PMS_P2;Temp;Humidity;BMP_temperature;BMP_pressure;BME280_temperature;BME280_humidity;BME280_pressure;Samples;Min_cycle;Max_cycle;Signal;HPM_P1;HPM_P2
2023/08/13 00:02:10;;;;;;;;;2.00;2.00;;;;;;;;5053679;28;45766;-81
2023/08/13 00:04:36;;;;;;;;;6.33;5.00;;;;;;;;5059673;28;45324;-85
2023/08/13 00:07:01;;;;;;;;;5.00;3.00;;;;;;;;5063523;28;45344;-83
2023/08/13 00:09:27;;;;;;;;;3.00;3.00;;;;;;;;5055167;28;45499;-85
2023/08/13 00:11:53;;;;;;;;;7.00;4.33;;;;;;;;5059868;28;45818;-85
2023/08/13 00:14:19;;;;;;;;;6.67;3.67;;;;;;;;5064279;28;45852;-84
2023/08/13 00:16:44;;;;;;;;;5.00;3.67;;;;;;;;5061172;28;46448;-85
2023/08/13 00:19:10;;;;;;;;;4.00;3.00;;;;;;;;5062058;28;47057;-85
2023/08/13 00:21:35;;;;;;;;;3.67;3.67;;;;;;;;5062673;28;45359;-84
2023/08/13 00:24:00;;;;;;;;;6.00;5.00;;;;;;;;5063427;28;45427;-85
2023/08/13 00:26:31;;;;;;;;;4.67;3.67;;;;;;;;5057991;28;46317;-84
2023/08/13 00:28:57;;;;;;;;;5.67;4.00;;;;;;;;5067851;28;45445;-84
2023/08/13 00:31:22;;;;;;;;;5.67;5.33;;;;;;;;5051023;28;45383;-85
2023/08/13 00:33:47;;;;;;;;;6.67;6.33;;;;;;;;5052368;28;45419;-85
2023/08/13 00:36:13;;;;;;;;;4.33;2.67;;;;;;;;5061999;28;45902;-83
2023/08/13 00:38:39;;;;;;;;;4.00;3.00;;;;;;;;5064558;28;45337;-84
2023/08/13 00:41:04;;;;;;;;;3.67;2.67;;;;;;;;5056830;28;45584;-84
2023/08/13 00:43:30;;;;;;;;;5.33;5.00;;;;;;;;5064883;28;45456;-85
2023/08/13 00:45:55;;;;;;;;;8.33;3.00;;;;;;;;5063669;28;45940;-85
2023/08/13 00:48:20;;;;;;;;;4.33;3.33;;;;;;;;5068141;28;46303;-85
2023/08/13 00:50:46;;;;;;;;;4.50;4.25;;;;;;;;5069144;28;45409;-84
2023/08/13 00:53:12;;;;;;;;;3.33;2.33;;;;;;;;5063802;28;45465;-85
2023/08/13 00:55:37;;;;;;;;;4.67;2.00;;;;;;;;5070251;28;44834;-84
2023/08/13 00:58:03;;;;;;;;;5.00;3.00;;;;;;;;5078348;28;45409;-84
2023/08/13 01:00:30;;;;;;;;;3.33;3.33;;;;;;;;5087946;28;45421;-83
2023/08/13 01:02:56;;;;;;;;;4.33;3.00;;;;;;;;5070114;28;45541;-79
2023/08/13 01:05:23;;;;;;;;;6.00;4.00;;;;;;;;5075626;28;45328;-79
2023/08/13 01:07:59;;;;;;;;;4.33;2.33;;;;;;;;5057376;28;47948;-79
2023/08/13 01:10:33;;;;;;;;;4.33;4.33;;;;;;;;5076305;28;45957;-77
2023/08/13 01:13:21;;;;;;;;;4.00;3.00;;;;;;;;5065640;28;45443;-79
2023/08/13 01:15:47;;;;;;;;;3.00;2.67;;;;;;;;5059136;28;45470;-79
2023/08/13 01:18:13;;;;;;;;;5.00;4.00;;;;;;;;5069357;28;46711;-78
2023/08/13 01:20:39;;;;;;;;;5.00;4.00;;;;;;;;5077378;28;46398;-79
2023/08/13 01:23:04;;;;;;;;;4.00;2.00;;;;;;;;5058754;28;45819;-78
2023/08/13 01:25:30;;;;;;;;;4.75;3.50;;;;;;;;5059910;28;47605;-79
2023/08/13 01:28:02;;;;;;;;;2.67;2.67;;;;;;;;5074461;28;47226;-78
2023/08/13 01:30:41;;;;;;;;;2.75;2.75;;;;;;;;5083247;28;45413;-79
2023/08/13 01:33:08;;;;;;;;;5.75;4.00;;;;;;;;5075153;28;45573;-77
2023/08/13 01:35:33;;;;;;;;;3.25;1.75;;;;;;;;5057128;28;45675;-79
2023/08/13 01:37:59;;;;;;;;;3.00;3.00;;;;;;;;5038165;28;47366;-79
2023/08/13 01:40:24;;;;;;;;;4.00;2.33;;;;;;;;5068345;28;45588;-79
2023/08/13 01:42:51;;;;;;;;;3.33;1.67;;;;;;;;5070668;28;45730;-78
2023/08/13 01:45:16;;;;;;;;;3.00;3.00;;;;;;;;5071087;28;45672;-78
2023/08/13 01:47:42;;;;;;;;;2.50;2.50;;;;;;;;5070058;28;45905;-78
2023/08/13 01:50:07;;;;;;;;;3.75;3.25;;;;;;;;5065941;28;45437;-78
2023/08/13 01:52:33;;;;;;;;;2.33;2.00;;;;;;;;5057553;28;45765;-78
2023/08/13 01:54:58;;;;;;;;;4.00;1.67;;;;;;;;5071230;28;45570;-78
2023/08/13 01:57:23;;;;;;;;;4.00;1.33;;;;;;;;5061361;28;45525;-80
2023/08/13 01:59:48;;;;;;;;;5.25;2.25;;;;;;;;5066715;28;45604;-78
2023/08/13 02:02:14;;;;;;;;;5.00;3.67;;;;;;;;5075382;28;45582;-77
2023/08/13 02:04:39;;;;;;;;;4.00;2.00;;;;;;;;5074943;28;45437;-79
2023/08/13 02:07:04;;;;;;;;;1.67;1.33;;;;;;;;5060242;28;45426;-77
2023/08/13 02:09:29;;;;;;;;;5.33;2.33;;;;;;;;5052944;28;45708;-78
2023/08/13 02:11:55;;;;;;;;;1.33;1.00;;;;;;;;5046024;28;45548;-78
2023/08/13 02:14:20;;;;;;;;;3.00;3.00;;;;;;;;5068239;28;45538;-78
2023/08/13 02:16:45;;;;;;;;;6.00;3.00;;;;;;;;5065205;28;46301;-80
2023/08/13 02:19:10;;;;;;;;;2.00;2.00;;;;;;;;5051817;28;45644;-79
2023/08/13 02:21:36;;;;;;;;;3.67;3.33;;;;;;;;5069883;28;45936;-79
2023/08/13 02:24:01;;;;;;;;;2.00;2.00;;;;;;;;5070274;28;45768;-78
2023/08/13 02:26:26;;;;;;;;;3.67;3.33;;;;;;;;5071294;28;45855;-79
2023/08/13 02:28:51;;;;;;;;;2.67;2.67;;;;;;;;5070383;28;45730;-79
2023/08/13 02:31:17;;;;;;;;;2.00;2.00;;;;;;;;5058167;28;45800;-79
2023/08/13 02:33:42;;;;;;;;;3.33;2.33;;;;;;;;5070393;28;45394;-79
2023/08/13 02:36:07;;;;;;;;;2.00;2.00;;;;;;;;5070893;28;45567;-77
2023/08/13 02:38:32;;;;;;;;;4.33;3.00;;;;;;;;5069791;28;45735;-79
2023/08/13 02:40:57;;;;;;;;;2.00;2.00;;;;;;;;5071389;28;45643;-78
2023/08/13 02:43:26;;;;;;;;;6.33;3.67;;;;;;;;5069683;28;45519;-78
2023/08/13 02:45:51;;;;;;;;;2.00;2.00;;;;;;;;5070295;28;45584;-78
2023/08/13 02:48:16;;;;;;;;;1.67;1.67;;;;;;;;5051516;28;45816;-78
2023/08/13 02:50:41;;;;;;;;;1.67;1.67;;;;;;;;5069971;28;45530;-78
2023/08/13 02:53:07;;;;;;;;;3.00;3.00;;;;;;;;5068186;28;45582;-78
2023/08/13 02:55:32;;;;;;;;;2.00;2.00;;;;;;;;5047102;28;47576;-79
2023/08/13 02:57:57;;;;;;;;;5.00;3.00;;;;;;;;5033869;28;45639;-78
2023/08/13 03:00:22;;;;;;;;;2.00;2.00;;;;;;;;5034700;28;45822;-78
2023/08/13 03:02:48;;;;;;;;;2.33;2.33;;;;;;;;5049184;28;45629;-78
2023/08/13 03:05:13;;;;;;;;;2.67;2.67;;;;;;;;5040434;28;46003;-77
2023/08/13 03:07:38;;;;;;;;;3.00;3.00;;;;;;;;5046438;28;45801;-79
2023/08/13 03:10:03;;;;;;;;;3.00;2.00;;;;;;;;5047483;28;45793;-78
2023/08/13 03:12:29;;;;;;;;;3.67;3.67;;;;;;;;5049043;28;45599;-78
2023/08/13 03:14:54;;;;;;;;;4.33;3.00;;;;;;;;5050471;28;45724;-77
2023/08/13 03:17:19;;;;;;;;;3.33;2.67;;;;;;;;5052158;28;45460;-77
2023/08/13 03:19:44;;;;;;;;;5.33;1.33;;;;;;;;5051066;28;45780;-77
2023/08/13 03:22:10;;;;;;;;;3.00;3.00;;;;;;;;5041778;28;45589;-77
2023/08/13 03:24:35;;;;;;;;;3.00;2.00;;;;;;;;5048592;28;46436;-79
2023/08/13 03:27:00;;;;;;;;;6.33;4.33;;;;;;;;5054150;28;45542;-78
2023/08/13 03:29:25;;;;;;;;;4.67;3.00;;;;;;;;5053939;28;45357;-79
2023/08/13 03:31:51;;;;;;;;;2.33;2.33;;;;;;;;5057040;28;45369;-77
2023/08/13 03:34:16;;;;;;;;;3.33;2.67;;;;;;;;5058292;28;45927;-79
2023/08/13 03:36:41;;;;;;;;;3.33;2.00;;;;;;;;5050303;28;45818;-77
2023/08/13 03:39:07;;;;;;;;;3.00;3.00;;;;;;;;5047640;28;45761;-77
2023/08/13 03:41:32;;;;;;;;;4.00;4.00;;;;;;;;5049628;28;46102;-77
2023/08/13 03:43:57;;;;;;;;;4.67;2.33;;;;;;;;5038333;28;46135;-79
2023/08/13 03:46:22;;;;;;;;;2.33;2.33;;;;;;;;5049007;28;45431;-78
2023/08/13 03:48:48;;;;;;;;;4.00;3.00;;;;;;;;5047920;28;45619;-78
2023/08/13 03:51:13;;;;;;;;;3.67;2.00;;;;;;;;5048743;28;45401;-78
2023/08/13 03:53:38;;;;;;;;;6.00;3.00;;;;;;;;5048436;28;45603;-78
2023/08/13 03:56:07;;;;;;;;;4.33;3.00;;;;;;;;5047116;28;45332;-75
2023/08/13 03:58:34;;;;;;;;;8.33;7.00;;;;;;;;5047547;28;45993;-76
2023/08/13 04:01:06;;;;;;;;;4.33;4.00;;;;;;;;5049816;28;45869;-78
2023/08/13 04:03:31;;;;;;;;;3.33;3.00;;;;;;;;5049868;28;46363;-77
2023/08/13 04:05:56;;;;;;;;;6.00;3.67;;;;;;;;5039055;28;45601;-79
2023/08/13 04:08:21;;;;;;;;;3.33;3.33;;;;;;;;5052018;28;45816;-78
2023/08/13 04:10:47;;;;;;;;;1.00;1.00;;;;;;;;5052220;28;45474;-78
2023/08/13 04:13:12;;;;;;;;;6.00;3.67;;;;;;;;5052417;28;46673;-80
2023/08/13 04:15:37;;;;;;;;;4.67;2.00;;;;;;;;5051755;28;45832;-79
2023/08/13 04:18:02;;;;;;;;;3.00;2.67;;;;;;;;5051347;28;45830;-78
2023/08/13 04:20:28;;;;;;;;;4.67;2.00;;;;;;;;5050937;28;45884;-79
2023/08/13 04:22:53;;;;;;;;;4.00;3.00;;;;;;;;5051010;28;47024;-79
2023/08/13 04:25:18;;;;;;;;;2.33;2.00;;;;;;;;5040232;28;45711;-79
2023/08/13 04:27:43;;;;;;;;;5.33;3.00;;;;;;;;5044822;28;45439;-78
2023/08/13 04:30:09;;;;;;;;;3.00;3.00;;;;;;;;5049944;28;45850;-78
2023/08/13 04:32:36;;;;;;;;;4.67;3.00;;;;;;;;5054315;28;45733;-79
2023/08/13 04:35:01;;;;;;;;;3.33;2.00;;;;;;;;5051996;28;45476;-79
2023/08/13 04:37:26;;;;;;;;;3.33;3.00;;;;;;;;5053311;28;45773;-78
2023/08/13 04:39:52;;;;;;;;;5.33;2.67;;;;;;;;5050958;28;47493;-78
2023/08/13 04:42:17;;;;;;;;;3.00;2.00;;;;;;;;5052229;28;46585;-79
2023/08/13 04:44:42;;;;;;;;;3.33;3.33;;;;;;;;5049826;28;45411;-78
2023/08/13 04:47:08;;;;;;;;;6.00;2.00;;;;;;;;5051614;28;45469;-78
2023/08/13 04:49:33;;;;;;;;;3.33;3.33;;;;;;;;5050883;28;45655;-78
2023/08/13 04:51:58;;;;;;;;;5.00;3.67;;;;;;;;5051849;28;45541;-78
2023/08/13 04:54:23;;;;;;;;;2.33;1.00;;;;;;;;5051046;28;45749;-79
2023/08/13 04:56:48;;;;;;;;;2.00;2.00;;;;;;;;5066284;28;45760;-78
2023/08/13 04:59:14;;;;;;;;;2.00;2.00;;;;;;;;5072198;28;45588;-79
2023/08/13 05:01:39;;;;;;;;;4.00;2.00;;;;;;;;5072017;28;46307;-80
2023/08/13 05:04:04;;;;;;;;;3.25;2.00;;;;;;;;5051233;28;45434;-78
2023/08/13 05:06:29;;;;;;;;;5.33;3.33;;;;;;;;5062016;28;45366;-78
2023/08/13 05:08:55;;;;;;;;;5.67;3.67;;;;;;;;5072507;28;46015;-78
2023/08/13 05:11:20;;;;;;;;;3.00;2.00;;;;;;;;5053839;28;47289;-80
2023/08/13 05:13:45;;;;;;;;;5.67;2.00;;;;;;;;5067141;28;45585;-79
2023/08/13 05:16:11;;;;;;;;;4.33;2.00;;;;;;;;5070473;28;45594;-79
2023/08/13 05:18:36;;;;;;;;;4.00;2.00;;;;;;;;5053369;28;45726;-78
2023/08/13 05:21:01;;;;;;;;;2.00;2.00;;;;;;;;5053156;28;48273;-80
2023/08/13 05:23:26;;;;;;;;;4.00;3.00;;;;;;;;5070290;28;45834;-78
2023/08/13 05:25:51;;;;;;;;;1.00;1.00;;;;;;;;5062166;28;45725;-78
2023/08/13 05:28:17;;;;;;;;;2.00;2.00;;;;;;;;5067190;28;45584;-80
2023/08/13 05:30:42;;;;;;;;;2.00;2.00;;;;;;;;5062209;28;45644;-79
2023/08/13 05:33:07;;;;;;;;;6.00;3.00;;;;;;;;5051587;28;45771;-78
2023/08/13 05:35:32;;;;;;;;;1.75;1.75;;;;;;;;5056326;28;45486;-79
2023/08/13 05:37:58;;;;;;;;;4.50;2.75;;;;;;;;5077451;28;45702;-78
2023/08/13 05:40:23;;;;;;;;;2.00;2.00;;;;;;;;5094307;27;46364;-79
2023/08/13 05:42:49;;;;;;;;;2.50;2.50;;;;;;;;5095286;28;45272;-78
2023/08/13 05:45:14;;;;;;;;;2.00;2.00;;;;;;;;5073636;28;45504;-78
2023/08/13 05:47:41;;;;;;;;;3.25;3.25;;;;;;;;5072100;28;45838;-79
2023/08/13 05:50:06;;;;;;;;;2.75;2.75;;;;;;;;5066465;28;46729;-79
2023/08/13 05:52:31;;;;;;;;;3.00;3.00;;;;;;;;5070092;28;45226;-79
2023/08/13 05:54:56;;;;;;;;;4.00;2.00;;;;;;;;5071549;28;45822;-80
2023/08/13 05:57:22;;;;;;;;;5.50;2.00;;;;;;;;5049371;28;46131;-78
2023/08/13 05:59:47;;;;;;;;;1.50;1.50;;;;;;;;5050310;28;46240;-80
2023/08/13 06:02:12;;;;;;;;;2.75;1.75;;;;;;;;5050822;28;45621;-79
2023/08/13 06:04:37;;;;;;;;;2.75;2.75;;;;;;;;5043178;28;45453;-79
2023/08/13 06:07:06;;;;;;;;;3.00;2.00;;;;;;;;5044579;28;45505;-80
2023/08/13 06:09:31;;;;;;;;;1.75;1.25;;;;;;;;5050489;28;46142;-80
2023/08/13 06:11:56;;;;;;;;;2.50;2.00;;;;;;;;5050228;28;45962;-79
2023/08/13 06:14:21;;;;;;;;;1.00;1.00;;;;;;;;5050403;28;45538;-79
2023/08/13 06:16:47;;;;;;;;;5.25;1.50;;;;;;;;5050299;28;45963;-81
2023/08/13 06:19:12;;;;;;;;;3.00;2.00;;;;;;;;5050203;28;46449;-79
2023/08/13 06:21:37;;;;;;;;;1.25;1.25;;;;;;;;5049971;28;45719;-80
2023/08/13 06:24:03;;;;;;;;;2.00;2.00;;;;;;;;5049044;28;45641;-79
2023/08/13 06:26:28;;;;;;;;;2.25;1.50;;;;;;;;5048269;28;45864;-78
2023/08/13 06:28:54;;;;;;;;;3.00;3.00;;;;;;;;5049923;28;45848;-78
2023/08/13 06:31:19;;;;;;;;;4.00;2.50;;;;;;;;5049653;28;45545;-77
2023/08/13 06:33:44;;;;;;;;;6.25;3.00;;;;;;;;5048693;28;45708;-79
2023/08/13 06:36:09;;;;;;;;;3.75;2.25;;;;;;;;5047974;28;46274;-80
2023/08/13 06:38:36;;;;;;;;;3.50;2.50;;;;;;;;5046816;28;45541;-79
2023/08/13 06:41:02;;;;;;;;;3.25;1.25;;;;;;;;5044521;28;45522;-79
2023/08/13 06:43:27;;;;;;;;;1.50;1.00;;;;;;;;5050705;28;45943;-79
2023/08/13 06:45:53;;;;;;;;;0.75;0.00;;;;;;;;5049483;28;45688;-80
2023/08/13 06:48:18;;;;;;;;;2.25;1.00;;;;;;;;5051633;28;46446;-79
2023/08/13 06:50:43;;;;;;;;;4.00;2.75;;;;;;;;5050644;28;46001;-79
2023/08/13 06:53:09;;;;;;;;;2.75;2.75;;;;;;;;5052400;28;45383;-79
2023/08/13 06:55:34;;;;;;;;;3.00;1.75;;;;;;;;5049967;28;46200;-80
2023/08/13 06:57:59;;;;;;;;;1.75;1.25;;;;;;;;5052643;28;45696;-78
2023/08/13 07:00:24;;;;;;;;;4.25;1.00;;;;;;;;5048535;28;45486;-79
2023/08/13 07:02:50;;;;;;;;;1.50;1.50;;;;;;;;5049353;28;45561;-77
2023/08/13 07:05:16;;;;;;;;;4.50;1.00;;;;;;;;5050533;28;45926;-79
2023/08/13 07:07:41;;;;;;;;;3.75;2.00;;;;;;;;5047726;28;47175;-78
2023/08/13 07:10:07;;;;;;;;;2.00;1.00;;;;;;;;5049034;28;45461;-78
2023/08/13 07:12:32;;;;;;;;;2.75;2.75;;;;;;;;5048704;28;45463;-78
2023/08/13 07:14:57;;;;;;;;;4.75;2.00;;;;;;;;5049377;28;45790;-79
2023/08/13 07:17:22;;;;;;;;;3.25;3.00;;;;;;;;5049332;28;46534;-78
2023/08/13 07:19:48;;;;;;;;;1.00;1.00;;;;;;;;5049989;28;45571;-78
2023/08/13 07:22:14;;;;;;;;;2.75;2.50;;;;;;;;5049083;28;45450;-79
2023/08/13 07:24:39;;;;;;;;;1.75;1.00;;;;;;;;5048481;28;46900;-78
2023/08/13 07:27:04;;;;;;;;;3.25;3.00;;;;;;;;5039637;28;46126;-79
2023/08/13 07:29:29;;;;;;;;;2.75;2.00;;;;;;;;5046913;28;45727;-78
2023/08/13 07:31:55;;;;;;;;;6.25;1.00;;;;;;;;5050869;28;45778;-79
2023/08/13 07:34:20;;;;;;;;;4.50;1.00;;;;;;;;5047540;28;45779;-79
2023/08/13 07:36:46;;;;;;;;;2.50;1.00;;;;;;;;5048522;28;45373;-80
2023/08/13 07:39:12;;;;;;;;;4.50;1.50;;;;;;;;5052236;28;45903;-78
2023/08/13 07:41:37;;;;;;;;;1.25;1.25;;;;;;;;5054717;28;45494;-79
2023/08/13 07:44:02;;;;;;;;;1.25;1.25;;;;;;;;5056851;28;45362;-79
2023/08/13 07:46:27;;;;;;;;;0.00;0.00;;;;;;;;5056174;28;45581;-79
2023/08/13 07:48:53;;;;;;;;;1.00;1.00;;;;;;;;5063623;28;45837;-79
2023/08/13 07:51:18;;;;;;;;;1.00;0.75;;;;;;;;5059154;28;46285;-80
2023/08/13 07:53:44;;;;;;;;;1.75;1.00;;;;;;;;5052051;28;46749;-80
2023/08/13 07:56:09;;;;;;;;;2.00;2.00;;;;;;;;5040352;28;47061;-79
2023/08/13 07:58:34;;;;;;;;;1.75;1.00;;;;;;;;5043547;28;45474;-77
2023/08/13 08:00:59;;;;;;;;;3.25;1.75;;;;;;;;5042016;28;45593;-79
2023/08/13 08:03:25;;;;;;;;;1.25;1.00;;;;;;;;5051813;28;45724;-79
2023/08/13 08:05:51;;;;;;;;;1.75;1.00;;;;;;;;5038897;28;45897;-80
2023/08/13 08:08:17;;;;;;;;;0.20;0.20;;;;;;;;5051666;28;46016;-80
2023/08/13 08:10:42;;;;;;;;;3.00;2.00;;;;;;;;5051094;28;45451;-80
2023/08/13 08:13:07;;;;;;;;;0.25;0.25;;;;;;;;5052958;28;45401;-78
2023/08/13 08:15:34;;;;;;;;;1.75;1.50;;;;;;;;5051252;28;47476;-81
2023/08/13 08:17:59;;;;;;;;;1.40;1.40;;;;;;;;5052402;28;45867;-78
2023/08/13 08:20:24;;;;;;;;;2.00;0.25;;;;;;;;5052494;28;46013;-78
2023/08/13 08:22:50;;;;;;;;;1.50;1.50;;;;;;;;5051672;28;45760;-80
2023/08/13 08:25:15;;;;;;;;;1.25;1.25;;;;;;;;5050696;28;45784;-79
2023/08/13 08:27:40;;;;;;;;;1.50;0.50;;;;;;;;5050162;28;45836;-79
2023/08/13 08:30:06;;;;;;;;;2.50;1.00;;;;;;;;5052472;28;45501;-79
2023/08/13 08:32:31;;;;;;;;;2.00;1.00;;;;;;;;5049467;28;45803;-80
2023/08/13 08:34:56;;;;;;;;;3.00;1.00;;;;;;;;5048982;28;47033;-79
2023/08/13 08:37:22;;;;;;;;;2.00;1.00;;;;;;;;5052155;28;45548;-78
2023/08/13 08:39:47;;;;;;;;;1.75;0.00;;;;;;;;5051988;28;45731;-79
2023/08/13 08:42:13;;;;;;;;;1.50;1.00;;;;;;;;5052800;28;45763;-80
2023/08/13 08:44:45;;;;;;;;;3.50;3.50;;;;;;;;5051295;28;46433;-79
2023/08/13 08:47:10;;;;;;;;;1.50;1.50;;;;;;;;5050760;28;45742;-80
2023/08/13 08:49:36;;;;;;;;;2.00;1.00;;;;;;;;5051704;28;45650;-79
2023/08/13 08:52:02;;;;;;;;;1.00;1.00;;;;;;;;5051416;28;45805;-79
2023/08/13 08:54:27;;;;;;;;;3.25;1.00;;;;;;;;5051660;28;45437;-79
2023/08/13 08:56:52;;;;;;;;;1.75;1.75;;;;;;;;5068194;28;45434;-78
2023/08/13 08:59:18;;;;;;;;;0.50;0.50;;;;;;;;5064525;28;45588;-78
2023/08/13 09:01:43;;;;;;;;;2.75;1.00;;;;;;;;5051281;28;45948;-79
2023/08/13 09:04:08;;;;;;;;;2.00;0.25;;;;;;;;5064125;28;46381;-79
2023/08/13 09:06:52;;;;;;;;;1.00;1.00;;;;;;;;5041006;28;45902;-87
2023/08/13 09:09:18;;;;;;;;;0.25;0.25;;;;;;;;5060363;28;45515;-84
2023/08/13 09:11:43;;;;;;;;;2.75;0.00;;;;;;;;5075092;28;45495;-87
2023/08/13 09:14:08;;;;;;;;;0.75;0.75;;;;;;;;5059257;28;47952;-86
2023/08/13 09:16:36;;;;;;;;;2.50;1.25;;;;;;;;5065011;28;45799;-86
2023/08/13 09:19:01;;;;;;;;;0.50;0.00;;;;;;;;5059020;28;45787;-86
2023/08/13 09:21:28;;;;;;;;;1.00;1.00;;;;;;;;5075277;28;45422;-87
2023/08/13 09:23:54;;;;;;;;;0.25;0.25;;;;;;;;5056856;28;47110;-87
2023/08/13 09:26:19;;;;;;;;;0.00;0.00;;;;;;;;5057539;28;45574;-86
2023/08/13 09:28:44;;;;;;;;;0.00;0.00;;;;;;;;5075638;28;45720;-86
2023/08/13 09:31:10;;;;;;;;;2.00;2.00;;;;;;;;5057367;28;46576;-88
2023/08/13 09:33:36;;;;;;;;;2.00;0.00;;;;;;;;5054582;28;47247;-87
2023/08/13 09:36:01;;;;;;;;;2.00;2.00;;;;;;;;5052227;28;45817;-86
2023/08/13 09:38:27;;;;;;;;;0.50;0.50;;;;;;;;5063520;28;45720;-86
2023/08/13 09:40:52;;;;;;;;;1.00;1.00;;;;;;;;5076882;28;45699;-85
2023/08/13 09:43:20;;;;;;;;;0.00;0.00;;;;;;;;5063710;28;45500;-86
2023/08/13 09:45:46;;;;;;;;;2.40;0.80;;;;;;;;5077059;28;45542;-87
2023/08/13 09:48:15;;;;;;;;;4.25;4.00;;;;;;;;5053861;28;45848;-77
2023/08/13 09:50:40;;;;;;;;;1.00;1.00;;;;;;;;5053275;28;46372;-81
2023/08/13 09:53:08;;;;;;;;;1.25;0.25;;;;;;;;5056757;28;48553;-79
2023/08/13 09:55:36;;;;;;;;;2.50;1.50;;;;;;;;5058311;28;45111;-80
2023/08/13 09:58:04;;;;;;;;;0.00;0.00;;;;;;;;5086750;28;45831;-80
2023/08/13 10:00:30;;;;;;;;;0.00;0.00;;;;;;;;5071658;28;45524;-80
2023/08/13 10:02:55;;;;;;;;;1.25;0.25;;;;;;;;5061611;28;45490;-81
2023/08/13 10:05:21;;;;;;;;;0.00;0.00;;;;;;;;5059035;28;45862;-80
2023/08/13 10:07:46;;;;;;;;;1.00;0.00;;;;;;;;5052802;28;45887;-79
2023/08/13 10:10:12;;;;;;;;;0.00;0.00;;;;;;;;5052654;28;47115;-79
2023/08/13 10:12:38;;;;;;;;;0.00;0.00;;;;;;;;5068859;28;45391;-78
2023/08/13 10:15:04;;;;;;;;;0.00;0.00;;;;;;;;5069972;28;45576;-80
2023/08/13 10:17:29;;;;;;;;;1.75;1.00;;;;;;;;5058211;28;45960;-79
2023/08/13 10:19:55;;;;;;;;;1.00;0.00;;;;;;;;5052327;28;45969;-78
2023/08/13 10:22:30;;;;;;;;;0.25;0.25;;;;;;;;5052987;28;47383;-79
2023/08/13 10:24:55;;;;;;;;;0.00;0.00;;;;;;;;5071993;28;45825;-80
2023/08/13 10:27:20;;;;;;;;;0.75;0.75;;;;;;;;5050678;28;45462;-81
2023/08/13 10:29:46;;;;;;;;;0.75;0.00;;;;;;;;5068128;28;45746;-79
2023/08/13 10:32:12;;;;;;;;;1.00;1.00;;;;;;;;5071811;28;46428;-80
2023/08/13 10:34:43;;;;;;;;;2.00;1.00;;;;;;;;5070292;28;45899;-79
2023/08/13 10:37:17;;;;;;;;;1.00;1.00;;;;;;;;5053404;28;45439;-79
2023/08/13 10:39:43;;;;;;;;;1.00;1.00;;;;;;;;5071129;28;45737;-79
2023/08/13 10:42:27;;;;;;;;;0.00;0.00;;;;;;;;5052643;28;46854;-80
2023/08/13 10:45:04;;;;;;;;;2.25;1.00;;;;;;;;5070241;28;45369;-79
2023/08/13 10:47:39;;;;;;;;;2.75;1.25;;;;;;;;5051927;28;45427;-81
2023/08/13 10:50:13;;;;;;;;;2.75;0.00;;;;;;;;5065595;28;45505;-79
2023/08/13 10:52:38;;;;;;;;;1.00;0.00;;;;;;;;5066058;28;47128;-81
2023/08/13 10:55:04;;;;;;;;;1.00;1.00;;;;;;;;5070158;28;45775;-79
2023/08/13 10:57:30;;;;;;;;;1.75;0.00;;;;;;;;5069602;28;45460;-79
2023/08/13 10:59:56;;;;;;;;;1.50;0.00;;;;;;;;5051470;28;45751;-81
2023/08/13 11:02:21;;;;;;;;;1.00;0.00;;;;;;;;5070851;28;45743;-80
2023/08/13 11:04:47;;;;;;;;;0.00;0.00;;;;;;;;5063094;28;45861;-80
2023/08/13 11:07:15;;;;;;;;;1.75;1.00;;;;;;;;5070231;28;45722;-78
2023/08/13 11:09:44;;;;;;;;;0.00;0.00;;;;;;;;5054534;28;46012;-77
2023/08/13 11:12:10;;;;;;;;;0.00;0.00;;;;;;;;5072305;28;45819;-79
2023/08/13 11:14:37;;;;;;;;;1.25;1.00;;;;;;;;5058093;28;45391;-79
2023/08/13 11:17:02;;;;;;;;;1.00;0.50;;;;;;;;5054872;28;45856;-80
2023/08/13 11:19:27;;;;;;;;;1.00;0.00;;;;;;;;5057667;28;46032;-79
2023/08/13 11:21:54;;;;;;;;;1.00;0.00;;;;;;;;5057494;28;47919;-80
2023/08/13 11:24:19;;;;;;;;;0.00;0.00;;;;;;;;5066486;28;45596;-79
2023/08/13 11:26:45;;;;;;;;;0.25;0.25;;;;;;;;5057529;28;46478;-79
2023/08/13 11:29:11;;;;;;;;;0.25;0.25;;;;;;;;5058821;28;45659;-79
2023/08/13 11:31:38;;;;;;;;;0.50;0.50;;;;;;;;5078965;28;45861;-80
2023/08/13 11:34:03;;;;;;;;;0.00;0.00;;;;;;;;5078315;28;45750;-79
2023/08/13 11:36:28;;;;;;;;;0.50;0.50;;;;;;;;5078298;28;45784;-79
2023/08/13 11:38:54;;;;;;;;;0.75;0.50;;;;;;;;5058638;28;45858;-79
2023/08/13 11:41:20;;;;;;;;;2.00;1.00;;;;;;;;5059494;28;48006;-81
2023/08/13 11:43:51;;;;;;;;;4.00;0.00;;;;;;;;5069189;28;45744;-80
2023/08/13 11:46:16;;;;;;;;;1.00;0.00;;;;;;;;5071460;28;45717;-79
2023/08/13 11:48:42;;;;;;;;;1.50;1.00;;;;;;;;5068727;28;45538;-78
2023/08/13 11:51:12;;;;;;;;;1.75;1.00;;;;;;;;5075866;28;45983;-80
2023/08/13 11:53:42;;;;;;;;;2.50;2.00;;;;;;;;5075743;28;45873;-80
2023/08/13 11:56:07;;;;;;;;;2.00;2.00;;;;;;;;5091911;28;45826;-79
2023/08/13 11:58:32;;;;;;;;;0.00;0.00;;;;;;;;5062550;28;45962;-80
2023/08/13 12:00:57;;;;;;;;;2.00;1.00;;;;;;;;5076797;28;45815;-80
2023/08/13 12:03:23;;;;;;;;;2.50;1.00;;;;;;;;5075942;28;45641;-80
2023/08/13 12:05:51;;;;;;;;;0.50;0.50;;;;;;;;5063299;28;45353;-80
2023/08/13 12:08:16;;;;;;;;;2.25;1.50;;;;;;;;5075920;28;45753;-78
2023/08/13 12:10:41;;;;;;;;;1.25;0.75;;;;;;;;5075832;28;46624;-80
2023/08/13 12:13:07;;;;;;;;;2.00;1.00;;;;;;;;5076437;28;45450;-80
2023/08/13 12:15:32;;;;;;;;;1.00;1.00;;;;;;;;5071972;28;45577;-79
2023/08/13 12:17:58;;;;;;;;;2.25;0.50;;;;;;;;5066755;28;45546;-81
2023/08/13 12:20:24;;;;;;;;;1.00;1.00;;;;;;;;5075581;28;46508;-78
2023/08/13 12:22:49;;;;;;;;;1.00;0.00;;;;;;;;5071220;28;45788;-79
2023/08/13 12:25:15;;;;;;;;;1.00;1.00;;;;;;;;5073358;28;45800;-80
2023/08/13 12:27:41;;;;;;;;;1.00;1.00;;;;;;;;5073590;28;45484;-79
2023/08/13 12:30:07;;;;;;;;;3.50;2.00;;;;;;;;5072239;28;46542;-78
2023/08/13 12:32:32;;;;;;;;;0.25;0.00;;;;;;;;5072322;28;45747;-79
2023/08/13 12:34:58;;;;;;;;;1.00;1.00;;;;;;;;5053599;28;45618;-79
2023/08/13 12:37:24;;;;;;;;;2.75;1.00;;;;;;;;5073034;28;45891;-80
2023/08/13 12:39:49;;;;;;;;;0.25;0.00;;;;;;;;5066593;28;47541;-79
2023/08/13 12:42:15;;;;;;;;;2.25;1.50;;;;;;;;5053945;28;45779;-80
2023/08/13 12:44:40;;;;;;;;;2.00;0.75;;;;;;;;5066440;28;46210;-78
2023/08/13 12:47:05;;;;;;;;;1.00;1.00;;;;;;;;5047018;28;45445;-80
2023/08/13 12:49:30;;;;;;;;;0.75;0.75;;;;;;;;5073437;28;45733;-80
2023/08/13 12:51:56;;;;;;;;;1.50;1.50;;;;;;;;5056067;28;45983;-79
2023/08/13 12:54:22;;;;;;;;;1.00;1.00;;;;;;;;5072184;28;45506;-80
2023/08/13 12:56:47;;;;;;;;;1.00;1.00;;;;;;;;5054082;28;45606;-79
2023/08/13 12:59:12;;;;;;;;;1.00;1.00;;;;;;;;5050367;28;47592;-79
2023/08/13 13:01:37;;;;;;;;;1.50;1.00;;;;;;;;5062100;28;45555;-80
2023/08/13 13:04:03;;;;;;;;;3.25;1.50;;;;;;;;5071862;28;45512;-80
2023/08/13 13:06:28;;;;;;;;;3.00;1.50;;;;;;;;5053584;28;47538;-79
2023/08/13 13:08:53;;;;;;;;;1.00;1.00;;;;;;;;5071764;28;45622;-79
2023/08/13 13:11:18;;;;;;;;;2.75;1.25;;;;;;;;5067411;28;45830;-80
2023/08/13 13:13:45;;;;;;;;;2.00;1.00;;;;;;;;5052092;28;45985;-80
2023/08/13 13:16:10;;;;;;;;;1.00;0.75;;;;;;;;5061210;28;45888;-80
2023/08/13 13:18:35;;;;;;;;;0.00;0.00;;;;;;;;5065903;28;45814;-79
2023/08/13 13:21:01;;;;;;;;;3.00;1.25;;;;;;;;5060646;28;45963;-80
2023/08/13 13:23:26;;;;;;;;;1.00;1.00;;;;;;;;5052633;28;45682;-79
2023/08/13 13:25:51;;;;;;;;;2.00;1.00;;;;;;;;5071814;28;45763;-79
2023/08/13 13:28:16;;;;;;;;;2.00;2.00;;;;;;;;5070208;28;46195;-79
2023/08/13 13:30:42;;;;;;;;;5.25;1.25;;;;;;;;5041451;28;45347;-78
2023/08/13 13:33:07;;;;;;;;;2.25;0.25;;;;;;;;5070931;28;45788;-78
2023/08/13 13:35:32;;;;;;;;;2.00;1.00;;;;;;;;5071647;28;45683;-80
2023/08/13 13:37:58;;;;;;;;;3.00;1.25;;;;;;;;5059121;28;45753;-79
2023/08/13 13:40:24;;;;;;;;;2.25;1.00;;;;;;;;5057098;28;45350;-79
2023/08/13 13:42:50;;;;;;;;;2.25;1.00;;;;;;;;5088830;28;45379;-80
2023/08/13 13:45:16;;;;;;;;;3.75;1.50;;;;;;;;5083163;28;45124;-79
2023/08/13 13:47:41;;;;;;;;;1.00;1.00;;;;;;;;5067478;28;45761;-80
2023/08/13 13:50:07;;;;;;;;;1.00;1.00;;;;;;;;5073309;28;45769;-79
2023/08/13 13:52:32;;;;;;;;;1.25;1.25;;;;;;;;5071451;28;45659;-80
2023/08/13 13:54:57;;;;;;;;;2.00;2.00;;;;;;;;5071220;28;45556;-78
2023/08/13 13:57:23;;;;;;;;;1.25;1.25;;;;;;;;5071272;28;46687;-80
2023/08/13 13:59:49;;;;;;;;;0.25;0.25;;;;;;;;5059720;28;45751;-79
2023/08/13 14:02:14;;;;;;;;;0.75;0.50;;;;;;;;5058232;28;45776;-80
2023/08/13 14:04:39;;;;;;;;;0.75;0.50;;;;;;;;5062957;28;45569;-80
2023/08/13 14:07:05;;;;;;;;;1.00;1.00;;;;;;;;5063797;28;45840;-80
2023/08/13 14:09:30;;;;;;;;;3.00;0.25;;;;;;;;5050957;28;45822;-79
2023/08/13 14:11:55;;;;;;;;;1.00;1.00;;;;;;;;5071375;28;46235;-80
2023/08/13 14:14:20;;;;;;;;;0.25;0.00;;;;;;;;5071564;28;45543;-80
2023/08/13 14:16:46;;;;;;;;;2.00;1.00;;;;;;;;5072007;28;45519;-80
2023/08/13 14:19:11;;;;;;;;;2.00;0.00;;;;;;;;5053439;28;45702;-80
2023/08/13 14:21:36;;;;;;;;;0.00;0.00;;;;;;;;5071802;28;45801;-79
2023/08/13 14:24:01;;;;;;;;;0.75;0.75;;;;;;;;5074877;28;45799;-79
2023/08/13 14:26:27;;;;;;;;;2.00;1.00;;;;;;;;5064581;28;47263;-78
2023/08/13 14:28:52;;;;;;;;;0.00;0.00;;;;;;;;5082122;28;45452;-78
2023/08/13 14:31:17;;;;;;;;;1.00;1.00;;;;;;;;5065824;28;45449;-80
2023/08/13 14:33:43;;;;;;;;;0.00;0.00;;;;;;;;5078457;28;45737;-78
2023/08/13 14:36:08;;;;;;;;;2.00;1.50;;;;;;;;5074101;28;46141;-78